Terminal Aerodrome Forecast
Issued by NWS Tiyan, Guam

Home | Current Version | Previous Version | Text Only | Print | Product List | Glossary On
Versions: 1 2 3 4 5 6 7 8 9 10 11 12 13 14 15 16 17 18 19 20 21 22 23 24 25 26 27 28 29 30 31 32 33 34 35 36 37 38
000
FTPQ31 PGUM 050520
TAFGUM
TAF
PGUM 050520Z 0506/0612 29020G30KT 4SM SHRA SCT012 BKN015 OVC030
      TEMPO 0506/0508 29025G40KT 1/2SM +SHRA BKN008 OVC020
     FM050800 26020G30KT 5SM SHRA SCT016 BKN050 OVC120
      TEMPO 0508/0510 1SM +SHRA BKN010 OVC020
     FM051000 24020G30KT P6SM -SHRA SCT016 BKN050 OVC120
      TEMPO 0510/0512 3SM +SHRA SCT008 OVC025
     FM051500 22015G25KT P6SM VCSH SCT016 BKN050 OVC120=

USA.gov is the U.S. government's official web portal to all federal, state and local government web resources and services.